Meath Environmental Platform

Observations for Trim Patrick St

Time AQI Temp °C Hum % Pres Pa CO μg/m³ H₂S μg/m³ NO μg/m³ NO₂ μg/m³ O₃ μg/m³ SO₂ μg/m³ PM1 μg/m³ PM2.5 μg/m³ PM10 μg/m³
Thursday 6 August 2026
00:36 2 13.7 72 38,460 0.27 4.25 3.54 14.14 57.54 0 4.57 10.75 11.83
00:35 2 13.7 73 38,460 0.25 4.85 3.49 16.3 55.65 0 6.29 11.43 12.57
00:34 2 13.7 72 38,460 0.26 4.87 3.52 14.14 55.38 0 8.86 14.34 15.77
00:33 2 13.7 72 38,460 0.26 4.77 3.52 18.62 56.39 0 7.14 13.59 14.95
00:32 2 13.7 72 38,460 0.28 4.54 3.52 16.05 57.03 0 7.14 12.24 13.46
00:31 2 13.8 72 38,460 0.26 3.53 3.48 12.61 42.85 0 8 14.39 15.83
00:30 2 13.8 71 38,459 0.28 4.33 3.51 17.13 55.89 0 7.14 12.27 13.5
00:29 2 13.8 72 38,459 0.26 3.92 3.49 10.02 39.11 0 8 13.62 14.98
00:28 2 13.8 71 38,459 0.26 5.01 3.5 15.62 55.22 0 7.14 11.54 12.69
00:27 2 13.8 72 38,459 0.27 4.67 3.51 14.18 57.29 0 8.86 12.95 14.24
00:26 2 13.9 70 38,459 0.27 4.77 3.44 14.78 57.15 0 8 13.76 15.14
00:25 2 13.9 72 38,459 0.26 4.05 3.41 12.72 45.71 0 8.86 14.39 15.83
00:24 2 13.9 72 38,459 0.26 3.66 3.43 14.48 55.71 0 7.14 12.24 13.46
00:23 2 13.9 71 38,458 0.26 3.22 3.39 11.66 42.68 0 6.29 12.98 14.28
00:22 2 13.9 72 38,457 0.25 4.02 3.34 11.21 43.15 0 6.29 12.92 14.21
00:21 2 13.9 72 38,456 0.27 4.57 3.35 16.92 58.61 0 7.14 12.2 13.42
00:20 2 13.9 71 38,455 0.25 3.63 3.44 11.43 46.72 0 8 14.44 15.88
00:19 2 14 72 38,452 0.23 4.41 3.33 13.1 56.44 0 6.29 11.49 12.63
00:18 2 14 72 38,450 0.24 4.54 3.39 13.98 59.18 0 7.14 11.51 12.66
00:17 2 14 70 38,446 0.25 4.75 3.43 13.55 53.74 0 5.43 10.18 11.19